Cloncurry, Australia
Current Conditions -  °F | °C
As of 1:00 AM on Friday 31 Oct 2014 (Local Time) from YBMA Reporting Station
Clear Clear  
Wind Chill: 19°   Ceiling: Unl
Heat Index: 19°   Visibility: 6mi
Dew Point: -2°   Wind: 5mph
Humidity: 24%   Direction: 210°SSW
Pressure: 29.83"   Gusts: NA
Location:  20.7°S, 140.51°E
Report Text: YBMA 301500Z AUTO 21004KT 9999 // NCD 19/M02 Q1010
Loading
Personal Weather Stations






























Interactive Weather Map
Tropical Storm Tracking
New forecast layout! Learn more

10-Day Weather Forecast

Advertisements
Track Severe Weather on mobile